createdAt,value
2023-05-20T00:00:56.211Z,1019.95
2023-05-20T00:01:56.148Z,1019.95
2023-05-20T00:02:56.175Z,1019.94
2023-05-20T00:03:56.199Z,1019.98
2023-05-20T00:04:56.213Z,1019.92
2023-05-20T00:05:56.033Z,1019.92
2023-05-20T00:06:56.068Z,1019.94
2023-05-20T00:07:56.075Z,1019.97
2023-05-20T00:08:56.077Z,1019.94
2023-05-20T00:09:55.964Z,1019.96
2023-05-20T00:10:55.973Z,1019.96
2023-05-20T00:11:55.902Z,1019.95
2023-05-20T00:12:55.930Z,1019.94
2023-05-20T00:13:55.891Z,1019.93
2023-05-20T00:14:56.113Z,1019.90
2023-05-20T00:15:55.901Z,1019.93
2023-05-20T00:16:55.815Z,1019.90
2023-05-20T00:17:55.868Z,1019.92
2023-05-20T00:18:55.752Z,1019.91
2023-05-20T00:19:55.832Z,1019.94
2023-05-20T00:20:55.718Z,1019.93
2023-05-20T00:21:55.753Z,1019.93
2023-05-20T00:22:55.679Z,1019.96
2023-05-20T00:23:55.636Z,1020.01
2023-05-20T00:24:55.669Z,1019.96
2023-05-20T00:25:56.992Z,1019.97
2023-05-20T00:26:55.682Z,1019.97
2023-05-20T00:27:55.558Z,1019.97
2023-05-20T00:28:55.529Z,1019.94
2023-05-20T00:29:55.606Z,1019.94
2023-05-20T00:30:55.502Z,1019.97
2023-05-20T00:31:55.574Z,1019.97
2023-05-20T00:32:55.480Z,1020.00
2023-05-20T00:33:55.410Z,1019.97
2023-05-20T00:34:55.390Z,1019.97
2023-05-20T00:35:55.478Z,1020.00
2023-05-20T00:36:55.339Z,1020.03
2023-05-20T00:37:55.383Z,1019.98
2023-05-20T00:38:55.324Z,1019.99
2023-05-20T00:39:55.372Z,1019.99
2023-05-20T00:40:55.257Z,1020.02
2023-05-20T00:41:55.443Z,1019.97
2023-05-20T00:42:55.219Z,1019.98
2023-05-20T00:43:55.380Z,1019.94
2023-05-20T00:44:55.181Z,1019.96
2023-05-20T00:45:55.210Z,1019.92
2023-05-20T00:46:55.123Z,1019.93
2023-05-20T00:47:55.253Z,1019.92
2023-05-20T00:48:55.074Z,1019.92
2023-05-20T00:49:55.058Z,1019.92
2023-05-20T00:50:55.027Z,1019.93
2023-05-20T00:51:55.040Z,1019.92
2023-05-20T00:52:54.991Z,1019.92
2023-05-20T00:53:55.057Z,1019.91
2023-05-20T00:54:54.955Z,1019.90
2023-05-20T00:55:54.966Z,1019.90
2023-05-20T00:56:54.890Z,1019.90
2023-05-20T00:57:54.979Z,1019.88
2023-05-20T00:58:54.856Z,1019.89
2023-05-20T00:59:54.888Z,1019.90
2023-05-20T01:00:54.799Z,1019.87
2023-05-20T01:01:54.823Z,1019.90
2023-05-20T01:02:54.879Z,1019.96
2023-05-20T01:03:54.876Z,1019.89
2023-05-20T01:04:54.704Z,1019.90
2023-05-20T01:05:54.706Z,1019.89
2023-05-20T01:06:54.661Z,1019.94
2023-05-20T01:07:54.737Z,1019.91
2023-05-20T01:08:54.618Z,1019.90
2023-05-20T01:09:54.651Z,1019.89
2023-05-20T01:10:54.584Z,1019.94
2023-05-20T01:11:54.560Z,1019.93
2023-05-20T01:12:54.531Z,1019.93
2023-05-20T01:13:54.577Z,1019.93
2023-05-20T01:14:54.479Z,1019.92
2023-05-20T01:15:54.505Z,1019.93
2023-05-20T01:16:54.439Z,1019.89
2023-05-20T01:17:54.531Z,1019.91
2023-05-20T01:18:54.424Z,1019.88
2023-05-20T01:19:54.425Z,1019.86
2023-05-20T01:20:54.342Z,1019.87
2023-05-20T01:21:54.337Z,1019.86
2023-05-20T01:22:54.311Z,1019.82
2023-05-20T01:23:54.373Z,1019.89
2023-05-20T01:24:54.252Z,1019.86
2023-05-20T01:25:54.268Z,1019.86
2023-05-20T01:26:54.269Z,1019.84
2023-05-20T01:27:54.202Z,1019.86
2023-05-20T01:28:54.176Z,1019.89
2023-05-20T01:29:54.137Z,1019.90
2023-05-20T01:30:54.249Z,1019.92
2023-05-20T01:31:54.131Z,1019.86
2023-05-20T01:32:54.182Z,1019.87
2023-05-20T01:33:54.043Z,1019.87
2023-05-20T01:34:54.125Z,1019.93
2023-05-20T01:35:54.008Z,1019.86
2023-05-20T01:36:54.029Z,1019.88
2023-05-20T01:37:53.970Z,1019.89
2023-05-20T01:38:53.941Z,1019.85
2023-05-20T01:39:53.907Z,1019.86
2023-05-20T01:40:53.958Z,1019.84
2023-05-20T01:41:53.865Z,1019.82
2023-05-20T01:42:53.857Z,1019.82
2023-05-20T01:43:53.819Z,1019.83
2023-05-20T01:44:53.893Z,1019.80
2023-05-20T01:45:53.784Z,1019.78
2023-05-20T01:46:53.810Z,1019.81
2023-05-20T01:47:53.808Z,1019.79
2023-05-20T01:48:53.813Z,1019.81
2023-05-20T01:49:53.682Z,1019.83
2023-05-20T01:50:53.800Z,1019.81
2023-05-20T01:51:53.632Z,1019.77
2023-05-20T01:52:53.742Z,1019.76
2023-05-20T01:53:53.588Z,1019.75
2023-05-20T01:54:53.690Z,1019.80
2023-05-20T01:55:53.554Z,1019.76
2023-05-20T01:56:53.569Z,1019.72
2023-05-20T01:57:53.509Z,1019.70
2023-05-20T01:58:53.473Z,1019.68
2023-05-20T01:59:53.455Z,1019.69
2023-05-20T02:00:53.555Z,1019.62
2023-05-20T02:01:53.441Z,1019.67
2023-05-20T02:02:53.524Z,1019.69
2023-05-20T02:03:53.372Z,1019.65
2023-05-20T02:04:53.418Z,1019.67
2023-05-20T02:05:53.382Z,1019.63
2023-05-20T02:06:53.333Z,1019.65
2023-05-20T02:07:53.297Z,1019.69
2023-05-20T02:08:53.344Z,1019.63
2023-05-20T02:09:53.220Z,1019.62
2023-05-20T02:10:53.258Z,1019.66
2023-05-20T02:11:53.176Z,1019.67
2023-05-20T02:12:53.272Z,1019.69
2023-05-20T02:13:53.131Z,1019.67
2023-05-20T02:14:53.119Z,1019.66
2023-05-20T02:15:53.192Z,1019.70
2023-05-20T02:16:53.184Z,1019.68
2023-05-20T02:17:53.117Z,1019.68
2023-05-20T02:18:53.164Z,1019.71
2023-05-20T02:19:53.004Z,1019.68
2023-05-20T02:20:52.971Z,1019.68
2023-05-20T02:21:53.030Z,1019.68
2023-05-20T02:22:52.936Z,1019.66
2023-05-20T02:23:52.942Z,1019.63
2023-05-20T02:24:52.878Z,1019.66
2023-05-20T02:25:52.970Z,1019.68
2023-05-20T02:26:52.838Z,1019.67
2023-05-20T02:27:52.870Z,1019.68
2023-05-20T02:28:52.800Z,1019.64
2023-05-20T02:29:52.858Z,1019.61
2023-05-20T02:30:52.733Z,1019.68
2023-05-20T02:31:52.797Z,1019.67
2023-05-20T02:32:52.734Z,1019.68
2023-05-20T02:33:52.809Z,1019.66
2023-05-20T02:34:52.650Z,1019.62
2023-05-20T02:35:52.627Z,1019.66
2023-05-20T02:36:52.609Z,1019.66
2023-05-20T02:37:52.655Z,1019.58
2023-05-20T02:38:52.558Z,1019.58
2023-05-20T02:39:52.549Z,1019.58
2023-05-20T02:40:52.509Z,1019.59
2023-05-20T02:41:52.586Z,1019.56
2023-05-20T02:42:52.487Z,1019.53
2023-05-20T02:43:52.487Z,1019.58
2023-05-20T02:44:52.416Z,1019.57
2023-05-20T02:45:52.551Z,1019.59
2023-05-20T02:46:52.371Z,1019.55
2023-05-20T02:47:52.432Z,1019.60
2023-05-20T02:48:52.317Z,1019.52
2023-05-20T02:49:52.323Z,1019.55
2023-05-20T02:50:52.270Z,1019.53
2023-05-20T02:51:52.246Z,1019.52
2023-05-20T02:52:52.250Z,1019.47
2023-05-20T02:53:52.246Z,1019.45
2023-05-20T02:54:52.176Z,1019.50
2023-05-20T02:55:52.255Z,1019.47
2023-05-20T02:56:52.141Z,1019.49
2023-05-20T02:57:52.169Z,1019.47
2023-05-20T02:58:52.084Z,1019.50
2023-05-20T02:59:52.081Z,1019.52
2023-05-20T03:00:52.043Z,1019.50
2023-05-20T03:01:52.253Z,1019.48
2023-05-20T03:02:52.125Z,1019.49
2023-05-20T03:03:52.013Z,1019.45
2023-05-20T03:04:52.172Z,1019.43
2023-05-20T03:05:52.024Z,1019.44
2023-05-20T03:06:51.896Z,1019.48
2023-05-20T03:07:51.894Z,1019.47
2023-05-20T03:08:51.848Z,1019.52
2023-05-20T03:09:51.844Z,1019.50
2023-05-20T03:10:51.833Z,1019.44
2023-05-20T03:11:51.860Z,1019.46
2023-05-20T03:12:51.770Z,1019.43
2023-05-20T03:13:51.785Z,1019.46
2023-05-20T03:14:51.708Z,1019.46
2023-05-20T03:15:51.838Z,1019.43
2023-05-20T03:16:51.663Z,1019.44
2023-05-20T03:17:51.758Z,1019.43
2023-05-20T03:18:51.632Z,1019.47
2023-05-20T03:19:51.631Z,1019.45
2023-05-20T03:20:51.569Z,1019.46
2023-05-20T03:21:51.640Z,1019.47
2023-05-20T03:22:51.546Z,1019.45
2023-05-20T03:23:51.490Z,1019.44
2023-05-20T03:24:51.540Z,1019.45
2023-05-20T03:25:51.446Z,1019.46
2023-05-20T03:26:51.457Z,1019.46
2023-05-20T03:27:51.409Z,1019.42
2023-05-20T03:28:51.385Z,1019.49
2023-05-20T03:29:51.382Z,1019.46
2023-05-20T03:30:51.391Z,1019.49
2023-05-20T03:31:51.460Z,1019.47
2023-05-20T03:32:51.449Z,1019.48
2023-05-20T03:33:51.273Z,1019.45
2023-05-20T03:34:51.311Z,1019.46
2023-05-20T03:35:51.210Z,1019.46
2023-05-20T03:36:51.224Z,1019.45
2023-05-20T03:37:51.177Z,1019.45
2023-05-20T03:38:51.241Z,1019.41
2023-05-20T03:39:51.114Z,1019.43
2023-05-20T03:40:51.159Z,1019.43
2023-05-20T03:41:51.066Z,1019.42
2023-05-20T03:42:51.166Z,1019.37
2023-05-20T03:43:51.038Z,1019.42
2023-05-20T03:44:51.004Z,1019.41
2023-05-20T03:45:50.972Z,1019.40
2023-05-20T03:46:51.057Z,1019.41
2023-05-20T03:47:50.967Z,1019.39
2023-05-20T03:48:51.014Z,1019.38
2023-05-20T03:49:50.869Z,1019.34
2023-05-20T03:50:50.934Z,1019.37
2023-05-20T03:51:50.828Z,1019.36
2023-05-20T03:52:50.851Z,1019.33
2023-05-20T03:53:50.779Z,1019.29
2023-05-20T03:54:50.852Z,1019.34
2023-05-20T03:55:50.744Z,1019.29
2023-05-20T03:56:50.765Z,1019.31
2023-05-20T03:57:50.693Z,1019.37
2023-05-20T03:58:50.785Z,1019.31
2023-05-20T03:59:50.636Z,1019.33
2023-05-20T04:00:50.613Z,1019.35
2023-05-20T04:01:50.651Z,1019.30
2023-05-20T04:02:50.723Z,1019.37
2023-05-20T04:03:50.750Z,1019.38
2023-05-20T04:04:50.618Z,1019.31
2023-05-20T04:05:50.513Z,1019.31
2023-05-20T04:06:50.529Z,1019.33
2023-05-20T04:07:50.467Z,1019.34
2023-05-20T04:08:50.550Z,1019.34
2023-05-20T04:09:50.399Z,1019.30
2023-05-20T04:10:50.485Z,1019.34
2023-05-20T04:11:50.353Z,1019.30
2023-05-20T04:12:50.370Z,1019.30
2023-05-20T04:13:50.301Z,1019.35
2023-05-20T04:14:50.375Z,1019.31
2023-05-20T04:15:50.261Z,1019.29
2023-05-20T04:16:50.311Z,1019.32
2023-05-20T04:17:50.329Z,1019.31
2023-05-20T04:18:50.194Z,1019.31
2023-05-20T04:19:50.196Z,1019.32
2023-05-20T04:20:50.155Z,1019.33
2023-05-20T04:21:50.125Z,1019.32
2023-05-20T04:22:50.109Z,1019.34
2023-05-20T04:23:50.155Z,1019.33
2023-05-20T04:24:50.047Z,1019.35
2023-05-20T04:25:50.065Z,1019.32
2023-05-20T04:26:50.027Z,1019.33
2023-05-20T04:27:49.981Z,1019.33
2023-05-20T04:28:49.995Z,1019.38
2023-05-20T04:29:49.921Z,1019.35
2023-05-20T04:30:49.977Z,1019.37
2023-05-20T04:31:49.925Z,1019.37
2023-05-20T04:32:49.917Z,1019.35
2023-05-20T04:33:49.821Z,1019.32
2023-05-20T04:34:49.909Z,1019.34
2023-05-20T04:35:49.782Z,1019.30
2023-05-20T04:36:49.828Z,1019.33
2023-05-20T04:37:49.835Z,1019.31
2023-05-20T04:38:49.734Z,1019.29
2023-05-20T04:39:49.744Z,1019.27
2023-05-20T04:40:49.657Z,1019.27
2023-05-20T04:41:49.658Z,1019.26
2023-05-20T04:42:49.636Z,1019.26
2023-05-20T04:43:49.677Z,1019.26
2023-05-20T04:44:49.583Z,1019.26
2023-05-20T04:45:49.612Z,1019.24
2023-05-20T04:46:49.516Z,1019.23
2023-05-20T04:47:49.622Z,1019.17
2023-05-20T04:48:49.502Z,1019.16
2023-05-20T04:49:49.512Z,1019.20
2023-05-20T04:50:49.416Z,1019.19
2023-05-20T04:51:49.414Z,1019.19
2023-05-20T04:52:49.389Z,1019.22
2023-05-20T04:53:49.372Z,1019.21
2023-05-20T04:54:49.333Z,1019.20
2023-05-20T04:55:49.338Z,1019.17
2023-05-20T04:56:49.279Z,1019.19
2023-05-20T04:57:49.367Z,1019.20
2023-05-20T04:58:49.244Z,1019.19
2023-05-20T04:59:49.265Z,1019.16
2023-05-20T05:00:49.197Z,1019.18
2023-05-20T05:01:49.223Z,1019.19
2023-05-20T05:02:49.189Z,1019.14
2023-05-20T05:03:49.192Z,1019.16
2023-05-20T05:04:49.116Z,1019.15
2023-05-20T05:05:49.112Z,1019.19
2023-05-20T05:06:49.046Z,1019.18
2023-05-20T05:07:49.121Z,1019.16
2023-05-20T05:08:49.000Z,1019.15
2023-05-20T05:09:48.970Z,1019.20
2023-05-20T05:10:48.950Z,1019.17
2023-05-20T05:11:48.953Z,1019.21
2023-05-20T05:12:48.911Z,1019.17
2023-05-20T05:13:48.978Z,1019.18
2023-05-20T05:14:48.870Z,1019.15
2023-05-20T05:15:48.914Z,1019.16
2023-05-20T05:16:48.807Z,1019.18
2023-05-20T05:17:48.951Z,1019.16
2023-05-20T05:18:48.798Z,1019.18
2023-05-20T05:19:48.802Z,1019.17
2023-05-20T05:20:48.716Z,1019.15
2023-05-20T05:21:48.728Z,1019.15
2023-05-20T05:22:48.683Z,1019.16
2023-05-20T05:23:48.738Z,1019.12
2023-05-20T05:24:48.625Z,1019.06
2023-05-20T05:25:48.598Z,1019.08
2023-05-20T05:26:48.573Z,1019.09
2023-05-20T05:27:48.656Z,1019.11
2023-05-20T05:28:48.522Z,1019.12
2023-05-20T05:29:48.565Z,1019.12
2023-05-20T05:30:48.599Z,1019.15
2023-05-20T05:31:48.470Z,1019.16
2023-05-20T05:32:48.568Z,1019.18
2023-05-20T05:33:48.409Z,1019.17
2023-05-20T05:34:48.400Z,1019.16
2023-05-20T05:35:48.354Z,1019.16
2023-05-20T05:36:48.342Z,1019.18
2023-05-20T05:37:48.430Z,1019.13
2023-05-20T05:38:48.285Z,1019.13
2023-05-20T05:39:48.334Z,1019.15
2023-05-20T05:40:48.249Z,1019.10
2023-05-20T05:41:48.241Z,1019.13
2023-05-20T05:42:48.268Z,1019.15
2023-05-20T05:43:48.171Z,1019.14
2023-05-20T05:44:48.164Z,1019.15
2023-05-20T05:45:48.137Z,1019.17
2023-05-20T05:46:48.133Z,1019.13
2023-05-20T05:47:48.141Z,1019.11
2023-05-20T05:48:48.096Z,1019.09
2023-05-20T05:49:48.028Z,1019.07
2023-05-20T05:50:48.120Z,1019.05
2023-05-20T05:51:47.980Z,1019.05
2023-05-20T05:52:48.019Z,1019.03
2023-05-20T05:53:47.933Z,1019.00
2023-05-20T05:54:47.933Z,1019.02
2023-05-20T05:55:47.883Z,1018.98
2023-05-20T05:56:47.941Z,1018.97
2023-05-20T05:57:47.912Z,1018.91
2023-05-20T05:58:47.867Z,1018.91
2023-05-20T05:59:47.808Z,1018.93
2023-05-20T06:00:47.920Z,1018.91
2023-05-20T06:01:47.804Z,1018.90
2023-05-20T06:02:47.908Z,1018.90
2023-05-20T06:03:47.797Z,1018.94
2023-05-20T06:04:47.708Z,1018.92
2023-05-20T06:05:47.654Z,1018.96
2023-05-20T06:06:47.707Z,1018.95
2023-05-20T06:07:47.726Z,1018.96
2023-05-20T06:08:47.581Z,1018.97
2023-05-20T06:09:47.640Z,1018.98
2023-05-20T06:10:47.552Z,1018.94
2023-05-20T06:11:47.540Z,1019.00
2023-05-20T06:12:47.518Z,1018.99
2023-05-20T06:13:47.569Z,1019.03
2023-05-20T06:14:47.445Z,1019.07
2023-05-20T06:15:47.469Z,1019.04
2023-05-20T06:16:47.440Z,1019.01
2023-05-20T06:17:47.552Z,1019.04
2023-05-20T06:18:47.419Z,1019.04
2023-05-20T06:19:47.401Z,1019.03
2023-05-20T06:20:47.301Z,1019.00
2023-05-20T06:21:47.301Z,1018.99
2023-05-20T06:22:47.285Z,1018.99
2023-05-20T06:23:47.245Z,1019.00
2023-05-20T06:24:47.213Z,1018.99
2023-05-20T06:25:47.250Z,1018.94
2023-05-20T06:26:47.170Z,1018.98
2023-05-20T06:27:47.243Z,1018.93
2023-05-20T06:28:47.133Z,1018.97
2023-05-20T06:29:47.183Z,1018.93
2023-05-20T06:30:47.127Z,1018.90
2023-05-20T06:31:47.089Z,1018.91
2023-05-20T06:32:47.075Z,1018.91
2023-05-20T06:33:47.093Z,1018.94
2023-05-20T06:34:46.997Z,1018.91
2023-05-20T06:35:47.000Z,1018.89
2023-05-20T06:36:46.939Z,1018.91
2023-05-20T06:37:47.056Z,1018.92
2023-05-20T06:38:46.912Z,1018.85
2023-05-20T06:39:46.874Z,1018.89
2023-05-20T06:40:46.937Z,1018.87
2023-05-20T06:41:46.849Z,1018.85
2023-05-20T06:42:46.884Z,1018.85
2023-05-20T06:43:46.794Z,1018.83
2023-05-20T06:44:46.776Z,1018.79
2023-05-20T06:45:46.751Z,1018.84
2023-05-20T06:46:46.948Z,1018.78
2023-05-20T06:47:46.729Z,1018.83
2023-05-20T06:48:46.836Z,1018.81
2023-05-20T06:49:47.644Z,1018.84
2023-05-20T06:50:46.631Z,1018.83
2023-05-20T06:51:46.649Z,1018.78
2023-05-20T06:52:46.604Z,1018.80
2023-05-20T06:53:46.651Z,1018.81
2023-05-20T06:54:46.538Z,1018.77
2023-05-20T06:55:46.526Z,1018.76
2023-05-20T06:56:46.507Z,1018.77
2023-05-20T06:57:46.577Z,1018.77
2023-05-20T06:58:46.447Z,1018.76
2023-05-20T06:59:46.504Z,1018.77
2023-05-20T07:00:46.428Z,1018.72
2023-05-20T07:01:46.428Z,1018.70
2023-05-20T07:02:46.466Z,1018.71
2023-05-20T07:03:46.490Z,1018.71
2023-05-20T07:04:46.313Z,1018.68
2023-05-20T07:05:46.336Z,1018.66
2023-05-20T07:06:46.292Z,1018.63
2023-05-20T07:07:46.349Z,1018.61
2023-05-20T07:08:46.227Z,1018.64
2023-05-20T07:09:46.272Z,1018.64
2023-05-20T07:10:46.185Z,1018.66
2023-05-20T07:11:46.167Z,1018.64
2023-05-20T07:12:46.164Z,1018.61
2023-05-20T07:13:46.309Z,1018.62
2023-05-20T07:14:46.092Z,1018.64
2023-05-20T07:15:46.243Z,1018.64
2023-05-20T07:16:46.049Z,1018.63
2023-05-20T07:17:46.182Z,1018.62
2023-05-20T07:18:46.075Z,1018.57
2023-05-20T07:19:46.120Z,1018.57
2023-05-20T07:20:45.982Z,1018.58
2023-05-20T07:21:46.050Z,1018.53
2023-05-20T07:22:45.930Z,1018.54
2023-05-20T07:23:46.063Z,1018.54
2023-05-20T07:24:45.876Z,1018.49
2023-05-20T07:25:45.963Z,1018.50
2023-05-20T07:26:45.854Z,1018.53
2023-05-20T07:27:45.828Z,1018.53
2023-05-20T07:28:45.792Z,1018.61
2023-05-20T07:29:45.889Z,1018.64
2023-05-20T07:30:45.749Z,1018.59
2023-05-20T07:31:45.873Z,1018.57
2023-05-20T07:32:45.773Z,1018.60
2023-05-20T07:33:45.811Z,1018.58
2023-05-20T07:34:45.662Z,1018.58
2023-05-20T07:35:45.765Z,1018.60
2023-05-20T07:36:45.630Z,1018.54
2023-05-20T07:37:45.615Z,1018.61
2023-05-20T07:38:56.993Z,1018.57
2023-05-20T07:39:45.565Z,1018.49
2023-05-20T07:40:45.638Z,1018.55
2023-05-20T07:41:45.525Z,1018.52
2023-05-20T07:42:45.578Z,1018.50
2023-05-20T07:43:45.481Z,1018.52
2023-05-20T07:44:45.592Z,1018.48
2023-05-20T07:45:45.554Z,1018.57
2023-05-20T07:46:45.561Z,1018.57
2023-05-20T07:47:45.469Z,1018.57
2023-05-20T07:48:45.411Z,1018.57
2023-05-20T07:49:45.350Z,1018.58
2023-05-20T07:50:45.425Z,1018.63
2023-05-20T07:51:45.305Z,1018.66
2023-05-20T07:52:56.161Z,1018.58
2023-05-20T07:53:45.273Z,1018.55
2023-05-20T07:54:45.346Z,1018.59
2023-05-20T07:55:45.222Z,1018.59
2023-05-20T07:56:45.265Z,1018.59
2023-05-20T07:57:45.206Z,1018.55
2023-05-20T07:58:45.165Z,1018.58
2023-05-20T07:59:45.226Z,1018.62
2023-05-20T08:00:45.119Z,1018.61
2023-05-20T08:01:45.201Z,1018.58
2023-05-20T08:02:45.225Z,1018.65
2023-05-20T08:03:45.119Z,1018.60
2023-05-20T08:04:45.123Z,1018.59
2023-05-20T08:05:45.022Z,1018.60
2023-05-20T08:06:45.028Z,1018.60
2023-05-20T08:07:44.998Z,1018.57
2023-05-20T08:08:44.952Z,1018.56
2023-05-20T08:09:45.051Z,1018.56
2023-05-20T08:10:44.910Z,1018.55
2023-05-20T08:11:47.213Z,1018.54
2023-05-20T08:12:44.891Z,1018.53
2023-05-20T08:13:44.884Z,1018.54
2023-05-20T08:14:44.880Z,1018.47
2023-05-20T08:15:44.820Z,1018.47
2023-05-20T08:16:45.010Z,1018.45
2023-05-20T08:17:44.807Z,1018.47
2023-05-20T08:18:44.800Z,1018.51
2023-05-20T08:19:44.727Z,1018.48
2023-05-20T08:20:44.835Z,1018.50
2023-05-20T08:21:44.686Z,1018.46
2023-05-20T08:22:44.730Z,1018.52
2023-05-20T08:23:44.657Z,1018.51
2023-05-20T08:24:44.646Z,1018.52
2023-05-20T08:25:44.620Z,1018.50
2023-05-20T08:26:44.664Z,1018.45
2023-05-20T08:27:44.583Z,1018.44
2023-05-20T08:28:44.588Z,1018.47
2023-05-20T08:29:44.529Z,1018.43
2023-05-20T08:30:44.610Z,1018.40
2023-05-20T08:31:44.546Z,1018.42
2023-05-20T08:32:44.544Z,1018.41
2023-05-20T08:33:44.471Z,1018.36
2023-05-20T08:34:44.425Z,1018.36
2023-05-20T08:35:44.531Z,1018.38
2023-05-20T08:36:44.394Z,1018.38
2023-05-20T08:37:44.438Z,1018.37
2023-05-20T08:38:44.346Z,1018.30
2023-05-20T08:39:44.329Z,1018.40
2023-05-20T08:40:44.382Z,1018.39
2023-05-20T08:41:44.291Z,1018.38
2023-05-20T08:42:44.379Z,1018.39
2023-05-20T08:43:44.252Z,1018.43
2023-05-20T08:44:44.230Z,1018.39
2023-05-20T08:45:44.282Z,1018.37
2023-05-20T08:46:44.273Z,1018.39
2023-05-20T08:47:44.366Z,1018.35
2023-05-20T08:48:44.167Z,1018.42
2023-05-20T08:49:44.141Z,1018.39
2023-05-20T08:50:44.221Z,1018.40
2023-05-20T08:51:44.093Z,1018.42
2023-05-20T08:52:44.129Z,1018.39
2023-05-20T08:53:44.063Z,1018.42
2023-05-20T08:54:44.041Z,1018.39
2023-05-20T08:55:44.060Z,1018.39
2023-05-20T08:56:44.002Z,1018.41
2023-05-20T08:57:44.084Z,1018.43
2023-05-20T08:58:43.969Z,1018.41
2023-05-20T08:59:43.946Z,1018.43
2023-05-20T09:00:44.001Z,1018.39
2023-05-20T09:01:43.939Z,1018.43
2023-05-20T09:02:44.031Z,1018.45
2023-05-20T09:03:43.875Z,1018.43
2023-05-20T09:04:43.887Z,1018.41
2023-05-20T09:05:43.923Z,1018.41
2023-05-20T09:06:43.834Z,1018.44
2023-05-20T09:07:43.833Z,1018.43
2023-05-20T09:08:43.772Z,1018.42
2023-05-20T09:09:43.754Z,1018.47
2023-05-20T09:10:43.756Z,1018.45
2023-05-20T09:11:43.769Z,1018.46
2023-05-20T09:12:43.791Z,1018.43
2023-05-20T09:13:43.682Z,1018.42
2023-05-20T09:14:43.658Z,1018.41
2023-05-20T09:15:43.685Z,1018.48
2023-05-20T09:16:43.776Z,1018.45
2023-05-20T09:17:43.718Z,1018.46
2023-05-20T09:18:43.648Z,1018.44
2023-05-20T09:19:43.566Z,1018.39
2023-05-20T09:20:43.650Z,1018.36
2023-05-20T09:21:43.529Z,1018.38
2023-05-20T09:22:43.628Z,1018.35
2023-05-20T09:23:43.489Z,1018.37
2023-05-20T09:24:43.472Z,1018.35
2023-05-20T09:25:43.566Z,1018.40
2023-05-20T09:26:43.463Z,1018.36
2023-05-20T09:27:43.464Z,1018.38
2023-05-20T09:28:43.397Z,1018.35
2023-05-20T09:29:43.394Z,1018.37
2023-05-20T09:30:45.777Z,1018.38
2023-05-20T09:31:43.380Z,1018.38
2023-05-20T09:32:43.415Z,1018.36
2023-05-20T09:33:43.310Z,1018.34
2023-05-20T09:34:43.319Z,1018.43
2023-05-20T09:35:43.399Z,1018.37
2023-05-20T09:36:43.268Z,1018.32
2023-05-20T09:37:43.325Z,1018.36
2023-05-20T09:38:43.225Z,1018.33
2023-05-20T09:39:43.246Z,1018.27
2023-05-20T09:40:43.251Z,1018.32
2023-05-20T09:41:43.158Z,1018.38
2023-05-20T09:42:43.259Z,1018.36
2023-05-20T09:43:43.162Z,1018.39
2023-05-20T09:44:43.107Z,1018.37
2023-05-20T09:45:43.175Z,1018.33
2023-05-20T09:46:43.190Z,1018.36
2023-05-20T09:47:43.087Z,1018.32
2023-05-20T09:48:43.099Z,1018.35
2023-05-20T09:49:43.124Z,1018.33
2023-05-20T09:50:43.009Z,1018.32
2023-05-20T09:51:43.023Z,1018.29
2023-05-20T09:52:42.979Z,1018.30
2023-05-20T09:53:43.061Z,1018.26
2023-05-20T09:54:43.046Z,1018.27
2023-05-20T09:55:42.916Z,1018.27
2023-05-20T09:56:42.957Z,1018.23
2023-05-20T09:57:42.892Z,1018.26
2023-05-20T09:58:42.991Z,1018.24
2023-05-20T09:59:42.901Z,1018.25
2023-05-20T10:00:42.836Z,1018.31
2023-05-20T10:01:42.930Z,1018.30
2023-05-20T10:02:42.851Z,1018.30
2023-05-20T10:03:44.268Z,1018.25
2023-05-20T10:04:42.776Z,1018.28
2023-05-20T10:05:42.812Z,1018.33
2023-05-20T10:06:42.729Z,1018.33
2023-05-20T10:07:42.850Z,1018.29
2023-05-20T10:08:42.692Z,1018.31
2023-05-20T10:09:42.743Z,1018.26
2023-05-20T10:10:42.665Z,1018.35
2023-05-20T10:11:44.188Z,1018.28
2023-05-20T10:12:42.639Z,1018.24
2023-05-20T10:13:42.715Z,1018.30
2023-05-20T10:14:42.597Z,1018.34
2023-05-20T10:15:42.623Z,1018.21
2023-05-20T10:16:42.560Z,1018.17
2023-05-20T10:17:42.612Z,1018.16
2023-05-20T10:18:42.557Z,1018.11
2023-05-20T10:19:42.614Z,1018.18
2023-05-20T10:20:42.495Z,1018.15
2023-05-20T10:21:42.478Z,1018.18
2023-05-20T10:22:42.537Z,1018.18
2023-05-20T10:23:42.461Z,1018.14
2023-05-20T10:24:42.567Z,1018.07
2023-05-20T10:25:42.419Z,1018.09
2023-05-20T10:26:42.455Z,1018.08
2023-05-20T10:27:42.394Z,1018.17
2023-05-20T10:28:42.479Z,1018.03
2023-05-20T10:29:42.354Z,1018.09
2023-05-20T10:30:44.366Z,1018.17
2023-05-20T10:31:42.313Z,1018.12
2023-05-20T10:32:42.389Z,1018.13
2023-05-20T10:33:42.387Z,1018.13
2023-05-20T10:34:42.288Z,1018.10
2023-05-20T10:35:42.315Z,1018.19
2023-05-20T10:36:42.820Z,1018.18
2023-05-20T10:37:42.252Z,1018.13
2023-05-20T10:38:42.202Z,1018.11
2023-05-20T10:39:42.255Z,1018.13
2023-05-20T10:40:42.193Z,1018.10
2023-05-20T10:41:42.258Z,1018.09
2023-05-20T10:42:42.153Z,1018.10
2023-05-20T10:43:42.146Z,1018.14
2023-05-20T10:44:42.171Z,1018.08
2023-05-20T10:45:42.087Z,1018.03
2023-05-20T10:47:00.010Z,1018.03
2023-05-20T10:47:42.146Z,1018.09
2023-05-20T10:48:42.147Z,1018.09
2023-05-20T10:49:42.029Z,1018.04
2023-05-20T10:50:42.119Z,1018.09
2023-05-20T10:51:42.006Z,1018.04
2023-05-20T10:52:42.036Z,1018.06
2023-05-20T10:53:41.968Z,1018.08
2023-05-20T10:54:41.952Z,1018.03
2023-05-20T10:55:42.065Z,1018.04
2023-05-20T10:56:41.914Z,1018.03
2023-05-20T10:57:41.959Z,1018.00
2023-05-20T10:58:41.886Z,1018.00
2023-05-20T10:59:41.881Z,1017.99
2023-05-20T11:00:41.901Z,1017.91
2023-05-20T11:01:41.984Z,1018.00
2023-05-20T11:02:41.884Z,1018.05
2023-05-20T11:03:41.992Z,1018.06
2023-05-20T11:04:41.795Z,1018.07
2023-05-20T11:05:41.772Z,1018.06
2023-05-20T11:06:41.818Z,1018.05
2023-05-20T11:07:41.765Z,1018.02
2023-05-20T11:08:41.856Z,1018.08
2023-05-20T11:09:41.718Z,1018.03
2023-05-20T11:10:41.700Z,1017.98
2023-05-20T11:11:41.694Z,1018.02
2023-05-20T11:12:41.802Z,1018.02
2023-05-20T11:13:41.670Z,1018.03
2023-05-20T11:14:41.673Z,1018.02
2023-05-20T11:15:41.622Z,1017.98
2023-05-20T11:16:41.730Z,1018.02
2023-05-20T11:17:41.693Z,1018.00
2023-05-20T11:18:41.658Z,1018.06
2023-05-20T11:19:41.560Z,1018.05
2023-05-20T11:20:41.616Z,1018.03
2023-05-20T11:21:41.535Z,1017.98
2023-05-20T11:22:41.548Z,1017.98
2023-05-20T11:23:41.530Z,1017.93
2023-05-20T11:24:41.490Z,1017.98
2023-05-20T11:25:41.565Z,1018.04
2023-05-20T11:26:41.575Z,1018.07
2023-05-20T11:27:41.451Z,1018.02
2023-05-20T11:28:41.469Z,1018.04
2023-05-20T11:29:41.410Z,1018.02
2023-05-20T11:30:41.501Z,1018.01
2023-05-20T11:31:41.399Z,1017.97
2023-05-20T11:32:41.439Z,1018.07
2023-05-20T11:33:41.350Z,1018.03
2023-05-20T11:34:41.417Z,1018.03
2023-05-20T11:35:41.316Z,1017.96
2023-05-20T11:36:41.312Z,1017.95
2023-05-20T11:37:41.301Z,1018.02
2023-05-20T11:38:41.347Z,1017.96
2023-05-20T11:39:41.274Z,1017.98
2023-05-20T11:40:49.780Z,1017.95
2023-05-20T11:41:41.224Z,1017.93
2023-05-20T11:42:41.237Z,1017.87
2023-05-20T11:43:41.192Z,1017.92
2023-05-20T11:44:41.284Z,1017.93
2023-05-20T11:45:41.189Z,1018.00
2023-05-20T11:46:42.350Z,1017.93
2023-05-20T11:47:41.186Z,1017.90
2023-05-20T11:48:41.126Z,1017.89
2023-05-20T11:49:41.210Z,1017.88
2023-05-20T11:50:41.092Z,1017.78
2023-05-20T11:51:41.133Z,1017.83
2023-05-20T11:52:41.076Z,1017.74
2023-05-20T11:53:41.068Z,1017.67
2023-05-20T11:54:41.043Z,1017.66
2023-05-20T11:55:41.049Z,1017.64
2023-05-20T11:56:41.014Z,1017.73
2023-05-20T11:57:41.060Z,1017.68
2023-05-20T11:58:40.979Z,1017.70
2023-05-20T11:59:41.094Z,1017.75
2023-05-20T12:00:51.296Z,1017.74
2023-05-20T12:01:40.942Z,1017.66
2023-05-20T12:02:41.051Z,1017.64
2023-05-20T12:03:41.192Z,1017.72
2023-05-20T12:04:40.930Z,1017.70
2023-05-20T12:05:40.913Z,1017.70